createdAt,value
2022-09-27T00:02:15.538Z,98510.81
2022-09-27T00:04:43.602Z,98504.41
2022-09-27T00:07:11.802Z,98507.31
2022-09-27T00:09:40.008Z,98509.19
2022-09-27T00:12:07.977Z,98503.06
2022-09-27T00:14:35.925Z,98500.09
2022-09-27T00:17:03.684Z,98501.16
2022-09-27T00:19:35.263Z,98512.97
2022-09-27T00:22:03.709Z,98505.97
2022-09-27T00:24:31.742Z,98506.78
2022-09-27T00:26:59.670Z,98504.38
2022-09-27T00:29:27.325Z,98509.75
2022-09-27T00:31:55.740Z,98508.94
2022-09-27T00:34:25.424Z,98503.81
2022-09-27T00:36:55.633Z,98517.22
2022-09-27T00:39:23.620Z,98506.50
2022-09-27T00:41:51.858Z,98514.00
2022-09-27T00:44:56.488Z,98515.59
2022-09-27T00:47:28.370Z,98508.63
2022-09-27T00:49:57.927Z,98509.16
2022-09-27T00:52:30.891Z,98515.03
2022-09-27T00:55:02.733Z,98515.03
2022-09-27T00:57:31.333Z,98508.34
2022-09-27T01:00:02.044Z,98517.69
2022-09-27T01:02:30.148Z,98512.91
2022-09-27T01:04:58.385Z,98517.16
2022-09-27T01:07:27.622Z,98511.75
2022-09-27T01:09:55.524Z,98517.13
2022-09-27T01:12:25.842Z,98523.56
2022-09-27T01:15:06.851Z,98526.47
2022-09-27T01:17:41.894Z,98529.44
2022-09-27T01:20:36.955Z,98527.00
2022-09-27T01:23:21.787Z,98527.53
2022-09-27T01:25:58.812Z,98530.72
2022-09-27T01:28:35.078Z,98534.97
2022-09-27T01:31:06.072Z,98533.38
2022-09-27T01:33:41.655Z,98526.69
2022-09-27T01:36:18.352Z,98530.94
2022-09-27T01:38:53.763Z,98525.06
2022-09-27T01:41:29.067Z,98538.97
2022-09-27T01:44:00.944Z,98541.09
2022-09-27T01:46:35.188Z,98536.25
2022-09-27T01:49:09.706Z,98537.34
2022-09-27T01:51:41.266Z,98538.38
2022-09-27T01:54:12.603Z,98532.00
2022-09-27T01:56:43.534Z,98544.53
2022-09-27T01:59:13.350Z,98544.78
2022-09-27T02:01:46.241Z,98542.66
2022-09-27T02:04:16.942Z,98544.53
2022-09-27T02:06:46.921Z,98541.03
2022-09-27T02:09:16.221Z,98541.03
2022-09-27T02:11:47.132Z,98546.38
2022-09-27T02:14:20.135Z,98548.81
2022-09-27T02:16:51.984Z,98539.44
2022-09-27T02:19:31.726Z,98540.22
2022-09-27T02:22:07.817Z,98543.19
2022-09-27T02:24:39.906Z,98539.97
2022-09-27T02:27:13.411Z,98547.47
2022-09-27T02:29:45.856Z,98537.81
2022-09-27T02:32:15.059Z,98546.91
2022-09-27T02:34:45.319Z,98540.78
2022-09-27T02:37:13.340Z,98545.84
2022-09-27T02:39:41.519Z,98545.31
2022-09-27T02:42:09.369Z,98542.38
2022-09-27T02:44:37.416Z,98556.00
2022-09-27T02:47:17.194Z,98548.25
2022-09-27T02:49:58.416Z,98554.41
2022-09-27T02:52:33.017Z,98548.53
2022-09-27T02:55:09.443Z,98551.47
2022-09-27T02:57:42.812Z,98536.75
2022-09-27T03:00:13.274Z,98542.09
2022-09-27T03:02:53.017Z,98542.59
2022-09-27T03:05:23.622Z,98544.75
2022-09-27T03:07:51.399Z,98547.13
2022-09-27T03:10:21.631Z,98548.41
2022-09-27T03:12:50.512Z,98546.22
2022-09-27T03:15:19.118Z,98545.34
2022-09-27T03:17:48.308Z,98553.63
2022-09-27T03:20:18.191Z,98552.53
2022-09-27T03:22:46.860Z,98554.13
2022-09-27T03:25:14.774Z,98558.91
2022-09-27T03:27:42.540Z,98558.41
2022-09-27T03:30:14.231Z,98562.72
2022-09-27T03:32:44.172Z,98557.94
2022-09-27T03:35:16.735Z,98561.13
2022-09-27T03:37:45.156Z,98553.06
2022-09-27T03:40:13.092Z,98564.22
2022-09-27T03:42:43.260Z,98570.63
2022-09-27T03:45:14.398Z,98577.56
2022-09-27T03:47:43.106Z,98580.50
2022-09-27T03:50:11.964Z,98580.44
2022-09-27T03:52:41.418Z,98588.75
2022-09-27T03:55:10.758Z,98586.34
2022-09-27T03:57:38.738Z,98588.75
2022-09-27T04:00:07.667Z,98586.03
2022-09-27T04:02:35.463Z,98589.72
2022-09-27T04:05:03.525Z,98594.50
2022-09-27T04:07:32.116Z,98596.94
2022-09-27T04:10:01.215Z,98587.56
2022-09-27T04:12:28.889Z,98584.31
2022-09-27T04:14:57.130Z,98587.25
2022-09-27T04:17:26.010Z,98589.66
2022-09-27T04:19:54.565Z,98589.66
2022-09-27T04:22:23.797Z,98585.84
2022-09-27T04:24:51.627Z,98595.94
2022-09-27T04:27:22.601Z,98596.97
2022-09-27T04:29:50.306Z,98598.06
2022-09-27T04:32:18.062Z,98602.75
2022-09-27T04:35:03.565Z,98608.09
2022-09-27T04:37:31.403Z,98611.53
2022-09-27T04:39:59.589Z,98610.50
2022-09-27T04:42:28.946Z,98614.97
2022-09-27T04:44:56.967Z,98623.47
2022-09-27T04:47:25.578Z,98624.53
2022-09-27T04:49:54.466Z,98629.56
2022-09-27T04:52:22.367Z,98622.81
2022-09-27T04:54:50.159Z,98632.94
2022-09-27T04:57:18.406Z,98637.06
2022-09-27T04:59:48.101Z,98643.47
2022-09-27T05:02:15.937Z,98644.03
2022-09-27T05:04:43.866Z,98643.53
2022-09-27T05:07:11.648Z,98650.00
2022-09-27T05:09:39.324Z,98646.56
2022-09-27T05:12:08.767Z,98656.53
2022-09-27T05:14:38.729Z,98651.25
2022-09-27T05:17:08.452Z,98658.19
2022-09-27T05:19:36.153Z,98658.50
2022-09-27T05:22:04.023Z,98665.75
2022-09-27T05:24:32.692Z,98666.56
2022-09-27T05:27:00.789Z,98666.31
2022-09-27T05:29:29.104Z,98668.50
2022-09-27T05:31:57.163Z,98672.19
2022-09-27T05:34:26.582Z,98667.19
2022-09-27T05:36:54.358Z,98662.66
2022-09-27T05:39:22.237Z,98668.00
2022-09-27T05:44:19.655Z,98676.56
2022-09-27T05:46:47.481Z,98674.44
2022-09-27T05:49:15.351Z,98671.22
2022-09-27T05:51:44.545Z,98668.28
2022-09-27T05:54:12.398Z,98668.59
2022-09-27T05:56:40.112Z,98671.81
2022-09-27T05:59:07.894Z,98668.91
2022-09-27T06:01:36.150Z,98663.38
2022-09-27T06:04:04.781Z,98665.91
2022-09-27T06:06:34.199Z,98664.13
2022-09-27T06:09:03.747Z,98659.94
2022-09-27T06:11:31.462Z,98668.00
2022-09-27T06:13:59.298Z,98660.81
2022-09-27T06:16:27.174Z,98661.63
2022-09-27T06:18:55.967Z,98655.25
2022-09-27T06:21:23.736Z,98662.81
2022-09-27T06:23:54.200Z,98665.72
2022-09-27T06:26:24.593Z,98662.84
2022-09-27T06:28:52.419Z,98665.75
2022-09-27T06:31:20.680Z,98661.69
2022-09-27T06:33:48.893Z,98660.94
2022-09-27T06:38:46.856Z,98672.13
2022-09-27T06:41:15.194Z,98666.75
2022-09-27T06:43:45.190Z,98684.91
2022-09-27T06:46:13.113Z,98686.22
2022-09-27T06:48:40.909Z,98691.63
2022-09-27T06:51:08.943Z,98706.34
2022-09-27T06:53:37.919Z,98724.53
2022-09-27T06:56:06.329Z,98729.94
2022-09-27T06:59:05.966Z,98738.00
2022-09-27T07:01:36.661Z,98734.59
2022-09-27T07:04:05.969Z,98735.03
2022-09-27T07:06:35.116Z,98742.47
2022-09-27T07:09:03.229Z,98734.91
2022-09-27T07:11:30.896Z,98736.31
2022-09-27T07:13:59.479Z,98741.44
2022-09-27T07:16:27.253Z,98739.31
2022-09-27T07:18:57.985Z,98741.03
2022-09-27T07:21:26.790Z,98742.78
2022-09-27T07:23:54.538Z,98751.94
2022-09-27T07:26:23.075Z,98755.63
2022-09-27T07:28:53.431Z,98742.88
2022-09-27T07:31:21.695Z,98750.56
2022-09-27T07:33:49.511Z,98751.94
2022-09-27T07:36:20.044Z,98756.78
2022-09-27T07:38:47.984Z,98755.97
2022-09-27T07:41:16.087Z,98760.69
2022-09-27T07:43:45.363Z,98756.34
2022-09-27T07:46:13.519Z,98767.53
2022-09-27T07:48:41.496Z,98770.13
2022-09-27T07:51:10.877Z,98776.03
2022-09-27T07:53:40.783Z,98778.44
2022-09-27T07:56:08.850Z,98777.78
2022-09-27T07:58:36.806Z,98771.34
2022-09-27T08:01:04.683Z,98773.59
2022-09-27T08:03:32.611Z,98784.38
2022-09-27T08:06:03.967Z,98790.81
2022-09-27T08:08:31.712Z,98792.78
2022-09-27T08:11:01.632Z,98782.03
2022-09-27T08:13:29.612Z,98793.03
2022-09-27T08:16:03.073Z,98796.88
2022-09-27T08:18:31.831Z,98798.38
2022-09-27T08:21:00.019Z,98794.22
2022-09-27T08:23:28.947Z,98780.25
2022-09-27T08:25:57.519Z,98798.81
2022-09-27T08:28:28.301Z,98796.94
2022-09-27T08:30:56.425Z,98802.38
2022-09-27T08:33:31.252Z,98799.28
2022-09-27T08:36:00.494Z,98802.31
2022-09-27T08:38:28.638Z,98805.94
2022-09-27T08:40:58.054Z,98803.78
2022-09-27T08:43:37.521Z,98806.69
2022-09-27T08:46:22.920Z,98810.78
2022-09-27T08:48:53.187Z,98802.63
2022-09-27T08:51:25.563Z,98813.28
2022-09-27T08:53:57.121Z,98816.03
2022-09-27T08:56:25.730Z,98815.94
2022-09-27T08:59:00.212Z,98832.50
2022-09-27T09:01:29.068Z,98829.47
2022-09-27T09:04:00.082Z,98827.50
2022-09-27T09:06:30.102Z,98837.56
2022-09-27T09:09:16.428Z,98830.28
2022-09-27T09:12:09.788Z,98817.78
2022-09-27T09:15:04.582Z,98832.47
2022-09-27T09:17:45.436Z,98819.38
2022-09-27T09:20:23.470Z,98817.50
2022-09-27T09:23:05.627Z,98818.22
2022-09-27T09:25:39.970Z,98822.06
2022-09-27T09:28:17.724Z,98823.88
2022-09-27T09:30:54.002Z,98816.69
2022-09-27T09:33:24.880Z,98822.59
2022-09-27T09:35:58.999Z,98815.59
2022-09-27T09:38:34.384Z,98824.72
2022-09-27T09:41:06.890Z,98817.69
2022-09-27T09:43:37.306Z,98820.56
2022-09-27T09:46:11.862Z,98821.16
2022-09-27T09:48:43.880Z,98822.56
2022-09-27T09:51:16.209Z,98825.97
2022-09-27T09:53:48.110Z,98820.66
2022-09-27T09:56:19.530Z,98825.75
2022-09-27T09:58:51.004Z,98813.91
2022-09-27T10:01:23.167Z,98816.91
2022-09-27T10:03:51.230Z,98817.06
2022-09-27T10:06:19.366Z,98807.06
2022-09-27T10:08:47.587Z,98816.00
2022-09-27T10:11:21.273Z,98812.50
2022-09-27T10:13:49.356Z,98817.31
2022-09-27T10:16:21.152Z,98806.56
2022-09-27T10:18:50.344Z,98824.84
2022-09-27T10:21:21.105Z,98815.19
2022-09-27T10:24:14.970Z,98809.25
2022-09-27T10:26:47.682Z,98817.84
2022-09-27T10:29:23.425Z,98806.75
2022-09-27T10:31:52.974Z,98816.75
2022-09-27T10:34:31.249Z,98809.25
2022-09-27T10:37:17.813Z,98808.16
2022-09-27T10:39:47.309Z,98813.66
2022-09-27T10:42:33.631Z,98814.50
2022-09-27T10:45:24.144Z,98801.59
2022-09-27T10:47:54.367Z,98801.09
2022-09-27T10:50:48.955Z,98806.41
2022-09-27T10:53:16.144Z,98814.22
2022-09-27T10:55:44.818Z,98800.41
2022-09-27T10:58:19.701Z,98801.81
2022-09-27T11:00:58.441Z,98793.28
2022-09-27T11:03:29.175Z,98790.34
2022-09-27T11:05:59.563Z,98797.38
2022-09-27T11:08:33.008Z,98806.50
2022-09-27T11:11:09.130Z,98809.63
2022-09-27T11:13:36.960Z,98808.56
2022-09-27T11:16:21.279Z,98812.91
2022-09-27T11:19:04.130Z,98808.28
2022-09-27T11:21:41.649Z,98811.38
2022-09-27T11:24:20.271Z,98823.75
2022-09-27T11:26:58.654Z,98810.88
2022-09-27T11:29:35.913Z,98822.03
2022-09-27T11:32:16.573Z,98814.72
2022-09-27T11:35:09.414Z,98808.56
2022-09-27T11:37:43.502Z,98803.63
2022-09-27T11:40:28.151Z,98807.94
2022-09-27T11:43:11.926Z,98794.72
2022-09-27T11:46:14.976Z,98796.88
2022-09-27T11:48:54.890Z,98799.63
2022-09-27T11:51:44.058Z,98787.66
2022-09-27T11:54:25.151Z,98797.25
2022-09-27T11:56:59.482Z,98775.34
2022-09-27T11:59:47.922Z,98783.78
2022-09-27T12:02:30.421Z,98792.47
2022-09-27T12:05:11.366Z,98801.78
2022-09-27T12:07:45.473Z,98828.63
2022-09-27T12:10:17.068Z,98814.50
2022-09-27T12:12:48.379Z,98800.00
2022-09-27T12:15:19.497Z,98801.09
2022-09-27T12:17:50.043Z,98802.94
2022-09-27T12:20:21.604Z,98813.13
2022-09-27T12:22:59.727Z,98813.84
2022-09-27T12:25:32.177Z,98800.47
2022-09-27T12:28:05.730Z,98805.31
2022-09-27T12:30:36.858Z,98814.19
2022-09-27T12:33:08.363Z,98803.16
2022-09-27T12:35:41.066Z,98809.47
2022-09-27T12:38:15.055Z,98812.88
2022-09-27T12:40:45.299Z,98797.97
2022-09-27T12:43:17.754Z,98803.34
2022-09-27T12:45:54.321Z,98785.50
2022-09-27T12:48:26.866Z,98792.09
2022-09-27T12:50:56.907Z,98788.31
2022-09-27T12:53:28.702Z,98801.78
2022-09-27T12:56:12.520Z,98798.53
2022-09-27T12:58:56.822Z,98810.84
2022-09-27T13:01:42.821Z,98800.69
2022-09-27T13:04:26.480Z,98809.84
2022-09-27T13:07:11.199Z,98811.44
2022-09-27T13:10:09.172Z,98805.47
2022-09-27T13:12:39.917Z,98808.22
2022-09-27T13:15:15.355Z,98806.25
2022-09-27T13:17:53.956Z,98802.53
2022-09-27T13:20:49.074Z,98790.34
2022-09-27T13:23:51.632Z,98798.81
2022-09-27T13:26:25.016Z,98808.75
2022-09-27T13:29:02.403Z,98815.19
2022-09-27T13:32:03.709Z,98815.19
2022-09-27T13:34:42.501Z,98814.03
2022-09-27T13:37:36.956Z,98823.78
2022-09-27T13:40:29.430Z,98824.00
2022-09-27T13:43:13.408Z,98817.06
2022-09-27T13:45:43.973Z,98814.97
2022-09-27T13:48:17.051Z,98816.38
2022-09-27T13:50:50.100Z,98815.88
2022-09-27T13:53:26.246Z,98819.41
2022-09-27T13:55:54.642Z,98810.72
2022-09-27T13:58:35.422Z,98809.91
2022-09-27T14:01:11.175Z,98815.47
2022-09-27T14:03:39.413Z,98808.78
2022-09-27T14:06:09.273Z,98802.69
2022-09-27T14:08:39.513Z,98803.84
2022-09-27T14:11:13.081Z,98810.63
2022-09-27T14:13:41.218Z,98808.03
2022-09-27T14:16:21.740Z,98808.66
2022-09-27T14:18:53.418Z,98812.41
2022-09-27T14:21:28.960Z,98807.66
2022-09-27T14:24:25.843Z,98796.81
2022-09-27T14:27:11.981Z,98813.97
2022-09-27T14:29:42.941Z,98814.25
2022-09-27T14:32:14.677Z,98811.50
2022-09-27T14:34:42.630Z,98812.88
2022-09-27T14:37:26.347Z,98808.91
2022-09-27T14:39:55.782Z,98808.16
2022-09-27T14:42:26.608Z,98811.38
2022-09-27T14:44:57.588Z,98814.59
2022-09-27T14:47:28.521Z,98827.00
2022-09-27T14:49:59.969Z,98823.75
2022-09-27T14:52:35.117Z,98821.59
2022-09-27T14:55:05.329Z,98819.66
2022-09-27T14:57:38.893Z,98825.84
2022-09-27T15:00:18.436Z,98827.78
2022-09-27T15:02:48.256Z,98825.03
2022-09-27T15:05:19.739Z,98826.59
2022-09-27T15:07:48.020Z,98824.22
2022-09-27T15:10:18.177Z,98833.59
2022-09-27T15:12:49.181Z,98837.91
2022-09-27T15:15:20.980Z,98834.38
2022-09-27T15:17:50.421Z,98820.13
2022-09-27T15:20:24.632Z,98833.53
2022-09-27T15:22:53.381Z,98836.78
2022-09-27T15:25:24.148Z,98840.25
2022-09-27T15:27:54.351Z,98839.16
2022-09-27T15:30:29.651Z,98834.38
2022-09-27T15:32:59.515Z,98833.78
2022-09-27T15:35:29.982Z,98836.59
2022-09-27T15:38:28.292Z,98839.75
2022-09-27T15:41:01.281Z,98829.59
2022-09-27T15:43:30.851Z,98829.16
2022-09-27T15:46:03.598Z,98830.72
2022-09-27T15:48:37.968Z,98828.56
2022-09-27T15:51:41.138Z,98830.09
2022-09-27T15:54:13.027Z,98844.56
2022-09-27T15:56:41.149Z,98837.06
2022-09-27T15:59:14.330Z,98846.94
2022-09-27T16:01:47.092Z,98832.44
2022-09-27T16:04:15.920Z,98831.63
2022-09-27T16:06:46.191Z,98840.97
2022-09-27T16:09:17.734Z,98832.13
2022-09-27T16:11:45.933Z,98838.03
2022-09-27T16:14:16.671Z,98836.72
2022-09-27T16:16:48.386Z,98835.84
2022-09-27T16:19:16.158Z,98830.50
2022-09-27T16:21:45.768Z,98839.63
2022-09-27T16:24:14.515Z,98838.28
2022-09-27T16:26:42.620Z,98848.22
2022-09-27T16:29:12.425Z,98841.19
2022-09-27T16:31:40.640Z,98848.97
2022-09-27T16:34:09.790Z,98841.16
2022-09-27T16:36:37.848Z,98841.41
2022-09-27T16:39:07.805Z,98851.31
2022-09-27T16:41:37.000Z,98857.47
2022-09-27T16:44:09.559Z,98851.75
2022-09-27T16:46:37.359Z,98858.72
2022-09-27T16:49:04.977Z,98865.09
2022-09-27T16:51:51.497Z,98858.63
2022-09-27T16:54:20.627Z,98851.06
2022-09-27T16:56:50.271Z,98847.31
2022-09-27T16:59:21.298Z,98856.66
2022-09-27T17:01:49.629Z,98864.41
2022-09-27T17:04:17.714Z,98869.16
2022-09-27T17:06:46.165Z,98865.88
2022-09-27T17:09:14.569Z,98861.06
2022-09-27T17:11:45.554Z,98854.22
2022-09-27T17:14:14.402Z,98854.44
2022-09-27T17:16:42.410Z,98864.97
2022-09-27T17:19:10.385Z,98864.13
2022-09-27T17:21:38.376Z,98851.72
2022-09-27T17:24:06.784Z,98857.88
2022-09-27T17:26:34.954Z,98856.25
2022-09-27T17:29:04.506Z,98845.19
2022-09-27T17:31:35.317Z,98844.91
2022-09-27T17:34:03.206Z,98844.09
2022-09-27T17:36:32.934Z,98847.25
2022-09-27T17:39:03.588Z,98853.38
2022-09-27T17:41:37.563Z,98848.47
2022-09-27T17:44:08.847Z,98844.38
2022-09-27T17:46:37.752Z,98851.34
2022-09-27T17:49:24.231Z,98847.78
2022-09-27T17:51:53.316Z,98840.81
2022-09-27T17:54:23.335Z,98845.31
2022-09-27T17:56:52.137Z,98851.09
2022-09-27T17:59:21.223Z,98844.31
2022-09-27T18:01:49.788Z,98844.00
2022-09-27T18:04:19.823Z,98834.38
2022-09-27T18:06:48.505Z,98830.69
2022-09-27T18:09:17.337Z,98829.53
2022-09-27T18:11:45.552Z,98829.75
2022-09-27T18:14:14.035Z,98829.25
2022-09-27T18:16:44.317Z,98828.66
2022-09-27T18:19:13.988Z,98828.53
2022-09-27T18:21:42.776Z,98827.91
2022-09-27T18:24:16.149Z,98834.69
2022-09-27T18:26:46.481Z,98830.91
2022-09-27T18:29:16.093Z,98830.38
2022-09-27T18:31:50.250Z,98828.50
2022-09-27T18:34:23.226Z,98827.97
2022-09-27T18:36:51.096Z,98826.31
2022-09-27T18:39:19.759Z,98826.81
2022-09-27T18:41:49.227Z,98824.53
2022-09-27T18:44:18.362Z,98821.00
2022-09-27T18:46:48.434Z,98822.78
2022-09-27T18:49:18.066Z,98822.63
2022-09-27T18:51:47.708Z,98819.38
2022-09-27T18:54:18.341Z,98816.97
2022-09-27T18:56:47.689Z,98815.41
2022-09-27T18:59:15.770Z,98813.09
2022-09-27T19:01:45.357Z,98813.41
2022-09-27T19:04:23.458Z,98812.69
2022-09-27T19:06:51.825Z,98808.72
2022-09-27T19:09:19.682Z,98810.22
2022-09-27T19:11:48.462Z,98813.88
2022-09-27T19:14:19.657Z,98804.81
2022-09-27T19:16:48.162Z,98805.38
2022-09-27T19:19:18.071Z,98813.25
2022-09-27T19:21:46.301Z,98812.75
2022-09-27T19:24:14.283Z,98808.34
2022-09-27T19:26:42.332Z,98793.31
2022-09-27T19:29:11.545Z,98797.16
2022-09-27T19:31:44.291Z,98806.25
2022-09-27T19:34:12.260Z,98803.31
2022-09-27T19:36:41.411Z,98799.84
2022-09-27T19:39:13.554Z,98797.50
2022-09-27T19:41:42.436Z,98793.75
2022-09-27T19:44:10.452Z,98800.91
2022-09-27T19:46:39.562Z,98808.84
2022-09-27T19:49:11.519Z,98807.41
2022-09-27T19:51:42.633Z,98801.25
2022-09-27T19:54:11.098Z,98795.72
2022-09-27T19:56:39.999Z,98791.94
2022-09-27T19:59:07.836Z,98792.31
2022-09-27T20:01:36.072Z,98791.81
2022-09-27T20:04:04.108Z,98791.53
2022-09-27T20:06:32.769Z,98778.72
2022-09-27T20:09:04.082Z,98784.81
2022-09-27T20:11:33.143Z,98773.75
2022-09-27T20:14:00.861Z,98776.94
2022-09-27T20:16:28.890Z,98781.97
2022-09-27T20:18:57.995Z,98773.75
2022-09-27T20:21:27.200Z,98770.31
2022-09-27T20:23:56.151Z,98776.25
2022-09-27T20:26:26.435Z,98775.94
2022-09-27T20:28:55.680Z,98781.13
2022-09-27T20:31:26.010Z,98779.97
2022-09-27T20:33:53.970Z,98775.31
2022-09-27T20:36:23.505Z,98778.53
2022-09-27T20:38:52.334Z,98777.72
2022-09-27T20:41:21.693Z,98776.34
2022-09-27T20:43:54.308Z,98779.03
2022-09-27T20:46:24.054Z,98766.41
2022-09-27T20:48:53.737Z,98775.13
2022-09-27T20:51:22.141Z,98769.78
2022-09-27T20:53:51.266Z,98770.81
2022-09-27T20:56:20.564Z,98762.25
2022-09-27T20:58:54.983Z,98766.13
2022-09-27T21:01:24.914Z,98767.09
2022-09-27T21:03:54.840Z,98760.13
2022-09-27T21:06:24.038Z,98760.66
2022-09-27T21:08:53.046Z,98764.84
2022-09-27T21:11:21.822Z,98759.50
2022-09-27T21:13:54.528Z,98760.66
2022-09-27T21:16:24.049Z,98759.50
2022-09-27T21:18:52.226Z,98758.41
2022-09-27T21:21:20.999Z,98747.72
2022-09-27T21:23:52.931Z,98756.22
2022-09-27T21:26:22.839Z,98748.63
2022-09-27T21:28:55.184Z,98743.84
2022-09-27T21:31:25.430Z,98743.22
2022-09-27T21:33:54.554Z,98741.09
2022-09-27T21:36:23.370Z,98737.38
2022-09-27T21:38:51.308Z,98742.72
2022-09-27T21:41:19.694Z,98744.84
2022-09-27T21:43:48.844Z,98741.84
2022-09-27T21:46:19.876Z,98741.63
2022-09-27T21:48:50.394Z,98742.41
2022-09-27T21:51:20.554Z,98734.16
2022-09-27T21:53:51.550Z,98728.75
2022-09-27T21:56:20.033Z,98732.44
2022-09-27T21:58:48.094Z,98729.31
2022-09-27T22:01:19.149Z,98730.94
2022-09-27T22:03:48.073Z,98726.91
2022-09-27T22:06:17.912Z,98727.69
2022-09-27T22:08:46.258Z,98725.50
2022-09-27T22:11:16.339Z,98720.75
2022-09-27T22:13:44.251Z,98711.66
2022-09-27T22:16:13.967Z,98718.97
2022-09-27T22:18:46.410Z,98712.75
2022-09-27T22:21:16.208Z,98709.47
2022-09-27T22:23:45.342Z,98714.22
2022-09-27T22:26:14.246Z,98707.59
2022-09-27T22:28:42.100Z,98706.22
2022-09-27T22:31:11.587Z,98705.69
2022-09-27T22:33:39.686Z,98711.00
2022-09-27T22:36:09.443Z,98705.75
2022-09-27T22:38:37.444Z,98703.06
2022-09-27T22:41:05.080Z,98704.25
2022-09-27T22:43:33.023Z,98694.34
2022-09-27T22:46:01.380Z,98695.44
2022-09-27T22:48:29.373Z,98693.06
2022-09-27T22:50:57.813Z,98692.50
2022-09-27T22:53:27.963Z,98690.16
2022-09-27T22:56:03.965Z,98689.28
2022-09-27T22:58:32.760Z,98683.38
2022-09-27T23:01:00.923Z,98679.06
2022-09-27T23:03:29.081Z,98680.13
2022-09-27T23:06:02.283Z,98672.06
2022-09-27T23:08:34.020Z,98670.44
2022-09-27T23:11:06.897Z,98679.31
2022-09-27T23:13:36.111Z,98672.22
2022-09-27T23:16:05.247Z,98672.91
2022-09-27T23:18:33.711Z,98676.25
2022-09-27T23:21:03.631Z,98673.16
2022-09-27T23:23:34.115Z,98669.94
2022-09-27T23:26:03.434Z,98669.56
2022-09-27T23:28:31.817Z,98672.22
2022-09-27T23:31:05.523Z,98666.19
2022-09-27T23:33:34.133Z,98665.59
2022-09-27T23:36:03.190Z,98667.94
2022-09-27T23:38:32.745Z,98665.25
2022-09-27T23:41:01.002Z,98654.59
2022-09-27T23:43:28.876Z,98660.38
2022-09-27T23:45:57.592Z,98652.31
2022-09-27T23:48:26.080Z,98645.25
2022-09-27T23:50:53.972Z,98638.28
2022-09-27T23:53:22.352Z,98645.25
2022-09-27T23:56:02.313Z,98641.81
2022-09-27T23:58:30.920Z,98635.41
